Kezdőlap
METAR-TAF:

METAR-TAF

Repülőterek :

Orsk, Oroszország

földrajzi szélesség: 51-04-18N, földrajzi hosszúság: 058-35-48E, magasság: 277 m

Jelenlegi meteorológiai megfigyelések

A jelentés 47 perccel ezelõtt készült, 13:00 UTC
Dél-délkeleti szél 8 kt
Hőmérséklet 6°C
Páratartalom 56%
Légköri nyomás 1026 hPa
Látótávolság 10 km, vagy több
felhőtlen 1500 m magasságban, és nincs gomolyfelhõ

METAR: UWOR 311300Z 16004MPS CAVOK 06/M02 Q1026 R25/CLRD65 NOSIG RMK QFE746/0995

Idő: 18:47 (13:47 UTC)

Előrejelzés

A jelentés 2 órával és 48 perccel ezelõtt készült, 10:59 UTC
Az előrejelzés 31-én 12 óra UTC és 31-én 21 óra UTC között érvényes
Dél-délkeleti szél 10 kt széllökések: 23 kt
Látótávolság 10 km, vagy több
Szakadozott felhőzet 2000 lábon
31-én 12 óra UTC és 31-én 21 óra UTC között ideiglenes
Déli szél 14 kt széllökések: 27 kt

TAF: UWOR 311059Z 3112/3121 16005G12MPS 9999 BKN020 TX11/3112Z TN03/3121Z TEMPO 3112/3121 18007G14MPS

Meteorológiai megfigyelések és előrejelzések több, mint 4000 repülőtéren (METAR és TAF jelentéseket).

A térképen piros és sárga pontok jelzik az elérhető meteorológiai állomásokat.

Mozgassa az egeret a pont fölött, hogy megjelenjen az állomás neve.

Azután kattintson az időjárási megfigyelések és előrejelzések megtekintéséhez.

A térkép megváltoztatása: kattintson a fekete keresztel jelölt zöld gombra ráközelítéshez, a vonallal jelölt zöld gombra távolításhoz, vagy a zöld nyilakra a szomszédos térképek eléréséhez.


METAR-TAF: